createdAt,value
2023-03-22T00:00:35.684Z,90.04
2023-03-22T00:03:27.705Z,90.06
2023-03-22T00:06:04.873Z,90.08
2023-03-22T00:08:41.782Z,90.13
2023-03-22T00:11:18.999Z,90.12
2023-03-22T00:13:55.370Z,90.13
2023-03-22T00:16:31.910Z,90.19
2023-03-22T00:19:08.417Z,90.25
2023-03-22T00:21:44.876Z,90.30
2023-03-22T00:24:21.833Z,90.35
2023-03-22T00:26:58.835Z,90.42
2023-03-22T00:29:35.084Z,90.48
2023-03-22T00:32:12.216Z,90.53
2023-03-22T00:34:49.086Z,90.57
2023-03-22T00:37:27.972Z,90.59
2023-03-22T00:40:04.760Z,90.62
2023-03-22T00:42:42.441Z,90.66
2023-03-22T00:45:19.385Z,90.69
2023-03-22T00:47:56.014Z,90.63
2023-03-22T00:50:32.703Z,90.48
2023-03-22T00:53:09.066Z,90.43
2023-03-22T00:55:45.625Z,90.51
2023-03-22T00:58:22.195Z,90.62
2023-03-22T01:00:58.597Z,90.69
2023-03-22T01:03:38.886Z,90.91
2023-03-22T01:06:16.644Z,91.07
2023-03-22T01:08:55.310Z,91.09
2023-03-22T01:11:31.981Z,91.12
2023-03-22T01:14:09.787Z,91.15
2023-03-22T01:16:46.364Z,91.22
2023-03-22T01:19:23.409Z,91.25
2023-03-22T01:22:00.634Z,91.30
2023-03-22T01:24:37.421Z,91.32
2023-03-22T01:27:13.816Z,91.35
2023-03-22T01:29:50.792Z,91.41
2023-03-22T01:32:27.116Z,91.50
2023-03-22T01:35:03.379Z,91.55
2023-03-22T01:37:39.818Z,91.61
2023-03-22T01:40:19.749Z,91.64
2023-03-22T01:42:57.609Z,91.70
2023-03-22T01:45:46.064Z,91.78
2023-03-22T01:48:31.425Z,91.85
2023-03-22T01:51:15.019Z,91.91
2023-03-22T01:54:36.534Z,91.95
2023-03-22T01:57:19.749Z,91.95
2023-03-22T01:59:56.335Z,91.96
2023-03-22T02:02:52.603Z,91.95
2023-03-22T02:05:38.182Z,91.95
2023-03-22T02:08:15.246Z,91.96
2023-03-22T02:11:22.875Z,92.00
2023-03-22T02:14:34.099Z,92.02
2023-03-22T02:17:51.455Z,92.02
2023-03-22T02:21:31.282Z,92.00
2023-03-22T02:25:24.730Z,91.99
2023-03-22T02:28:36.551Z,91.92
2023-03-22T02:31:49.928Z,91.88
2023-03-22T02:34:57.382Z,91.83
2023-03-22T02:38:18.770Z,91.89
2023-03-22T02:41:04.086Z,91.78
2023-03-22T02:43:52.661Z,91.69
2023-03-22T02:46:40.090Z,91.75
2023-03-22T02:49:32.238Z,91.95
2023-03-22T02:52:17.801Z,92.15
2023-03-22T02:55:05.878Z,92.23
2023-03-22T02:57:54.007Z,92.36
2023-03-22T03:00:32.407Z,92.35
2023-03-22T03:03:15.075Z,92.29
2023-03-22T03:05:58.778Z,92.25
2023-03-22T03:08:36.266Z,92.29
2023-03-22T03:11:14.219Z,92.39
2023-03-22T03:13:52.980Z,92.54
2023-03-22T03:16:36.821Z,92.58
2023-03-22T03:19:27.589Z,92.62
2023-03-22T03:22:18.793Z,92.68
2023-03-22T03:25:03.596Z,92.70
2023-03-22T03:27:49.931Z,92.71
2023-03-22T03:30:39.150Z,92.72
2023-03-22T03:33:25.174Z,92.74
2023-03-22T03:36:08.293Z,92.86
2023-03-22T03:38:52.210Z,92.91
2023-03-22T03:41:33.151Z,92.94
2023-03-22T03:44:10.543Z,92.98
2023-03-22T03:46:49.274Z,93.00
2023-03-22T03:49:27.405Z,93.02
2023-03-22T03:52:05.603Z,93.16
2023-03-22T03:54:42.832Z,93.26
2023-03-22T03:57:23.874Z,93.34
2023-03-22T04:00:00.154Z,93.36
2023-03-22T04:02:55.047Z,93.43
2023-03-22T04:05:56.179Z,93.49
2023-03-22T04:08:33.029Z,93.54
2023-03-22T04:11:10.404Z,93.60
2023-03-22T04:13:48.317Z,93.63
2023-03-22T04:16:26.465Z,93.64
2023-03-22T04:19:03.192Z,93.65
2023-03-22T04:21:39.533Z,93.68
2023-03-22T04:24:17.206Z,93.70
2023-03-22T04:26:54.927Z,93.76
2023-03-22T04:29:36.476Z,93.77
2023-03-22T04:32:27.220Z,93.80
2023-03-22T04:35:05.966Z,93.80
2023-03-22T04:37:43.142Z,93.80
2023-03-22T04:40:26.664Z,93.80
2023-03-22T04:43:13.720Z,93.82
2023-03-22T04:45:58.537Z,93.83
2023-03-22T04:48:42.202Z,93.83
2023-03-22T04:51:20.065Z,93.84
2023-03-22T04:54:43.259Z,93.84
2023-03-22T04:57:19.940Z,93.85
2023-03-22T04:59:57.471Z,93.85
2023-03-22T05:02:33.869Z,93.85
2023-03-22T05:05:12.178Z,93.86
2023-03-22T05:07:49.865Z,93.87
2023-03-22T05:10:26.118Z,93.84
2023-03-22T05:13:02.628Z,93.83
2023-03-22T05:15:49.782Z,93.80
2023-03-22T05:18:28.054Z,93.79
2023-03-22T05:21:11.813Z,93.77
2023-03-22T05:23:51.478Z,93.75
2023-03-22T05:26:30.083Z,93.71
2023-03-22T05:29:06.537Z,93.67
2023-03-22T05:31:55.808Z,93.62
2023-03-22T05:34:35.994Z,93.58
2023-03-22T05:37:23.664Z,93.49
2023-03-22T05:40:05.374Z,93.35
2023-03-22T05:42:45.642Z,93.23
2023-03-22T05:45:29.634Z,93.13
2023-03-22T05:48:18.957Z,93.06
2023-03-22T05:50:55.665Z,92.99
2023-03-22T05:53:33.229Z,92.95
2023-03-22T05:56:24.394Z,92.99
2023-03-22T05:59:04.293Z,93.03
2023-03-22T06:01:41.232Z,93.04
2023-03-22T06:04:27.532Z,93.08
2023-03-22T06:07:06.672Z,93.04
2023-03-22T06:09:52.404Z,93.01
2023-03-22T06:12:31.674Z,92.95
2023-03-22T06:15:25.137Z,92.83
2023-03-22T06:18:16.637Z,92.57
2023-03-22T06:20:55.264Z,92.38
2023-03-22T06:23:33.056Z,92.04
2023-03-22T06:26:11.470Z,91.57
2023-03-22T06:28:48.108Z,91.06
2023-03-22T06:31:24.580Z,90.86
2023-03-22T06:34:12.363Z,90.68
2023-03-22T06:36:51.149Z,90.21
2023-03-22T06:39:42.071Z,89.78
2023-03-22T06:42:18.615Z,89.25
2023-03-22T06:44:56.575Z,88.98
2023-03-22T06:47:39.229Z,88.71
2023-03-22T06:50:40.327Z,88.61
2023-03-22T06:53:21.579Z,87.79
2023-03-22T06:55:58.520Z,87.45
2023-03-22T06:58:35.026Z,87.72
2023-03-22T07:01:11.936Z,87.52
2023-03-22T07:03:48.658Z,87.17
2023-03-22T07:06:26.650Z,86.97
2023-03-22T07:09:04.031Z,87.09
2023-03-22T07:11:43.354Z,86.95
2023-03-22T07:14:19.790Z,86.60
2023-03-22T07:17:16.464Z,86.30
2023-03-22T07:19:53.649Z,86.21
2023-03-22T07:22:32.205Z,85.62
2023-03-22T07:25:11.674Z,85.41
2023-03-22T07:27:48.385Z,85.13
2023-03-22T07:30:25.308Z,84.57
2023-03-22T07:33:01.852Z,83.80
2023-03-22T07:35:39.069Z,83.56
2023-03-22T07:38:15.783Z,82.95
2023-03-22T07:40:55.986Z,83.15
2023-03-22T07:43:47.316Z,82.72
2023-03-22T07:46:47.658Z,81.91
2023-03-22T07:49:33.380Z,80.32
2023-03-22T07:52:16.842Z,78.85
2023-03-22T07:54:53.137Z,77.81
2023-03-22T07:57:29.429Z,75.96
2023-03-22T08:00:12.105Z,75.16
2023-03-22T08:03:03.974Z,73.73
2023-03-22T08:06:08.260Z,71.60
2023-03-22T08:08:44.675Z,71.23
2023-03-22T08:11:21.144Z,70.70
2023-03-22T08:13:57.612Z,68.59
2023-03-22T08:16:34.078Z,65.56
2023-03-22T08:19:11.532Z,65.86
2023-03-22T08:21:48.097Z,65.12
2023-03-22T08:24:36.893Z,64.27
2023-03-22T08:27:16.452Z,64.36
2023-03-22T08:29:59.200Z,61.89
2023-03-22T08:32:37.488Z,62.08
2023-03-22T08:35:16.024Z,62.83
2023-03-22T08:37:56.589Z,63.45
2023-03-22T08:40:36.532Z,63.93
2023-03-22T08:43:13.518Z,64.51
2023-03-22T08:45:50.511Z,65.17
2023-03-22T08:48:30.877Z,65.70
2023-03-22T08:51:23.839Z,65.94
2023-03-22T08:54:10.110Z,66.34
2023-03-22T08:57:39.116Z,66.89
2023-03-22T09:01:03.898Z,66.89
2023-03-22T09:03:46.527Z,67.31
2023-03-22T09:06:23.272Z,67.46
2023-03-22T09:09:00.059Z,67.50
2023-03-22T09:11:37.409Z,67.65
2023-03-22T09:14:15.135Z,67.75
2023-03-22T09:16:52.006Z,67.68
2023-03-22T09:19:28.754Z,68.17
2023-03-22T09:22:05.262Z,67.83
2023-03-22T09:24:49.195Z,68.17
2023-03-22T09:27:25.958Z,67.47
2023-03-22T09:30:02.531Z,66.84
2023-03-22T09:32:41.560Z,66.51
2023-03-22T09:35:19.693Z,66.47
2023-03-22T09:38:06.780Z,65.81
2023-03-22T09:41:00.590Z,65.70
2023-03-22T09:43:43.745Z,65.59
2023-03-22T09:46:31.578Z,65.10
2023-03-22T09:49:15.355Z,65.75
2023-03-22T09:51:54.884Z,66.12
2023-03-22T09:54:39.596Z,66.10
2023-03-22T09:57:30.504Z,66.41
2023-03-22T10:00:23.424Z,65.91
2023-03-22T10:03:21.131Z,65.49
2023-03-22T10:06:07.444Z,65.40
2023-03-22T10:09:00.593Z,65.18
2023-03-22T10:11:48.494Z,64.70
2023-03-22T10:14:39.327Z,63.20
2023-03-22T10:17:25.068Z,63.33
2023-03-22T10:20:09.927Z,62.88
2023-03-22T10:22:51.622Z,62.61
2023-03-22T10:25:38.250Z,62.77
2023-03-22T10:28:28.088Z,62.73
2023-03-22T10:31:06.014Z,62.11
2023-03-22T10:33:50.627Z,61.77
2023-03-22T10:36:35.031Z,60.48
2023-03-22T10:39:24.938Z,60.62
2023-03-22T10:42:06.782Z,60.48
2023-03-22T10:44:51.879Z,60.64
2023-03-22T10:47:41.498Z,59.56
2023-03-22T10:50:28.709Z,58.47
2023-03-22T10:53:12.844Z,58.14
2023-03-22T10:55:49.674Z,58.28
2023-03-22T10:58:32.396Z,57.84
2023-03-22T11:01:14.425Z,57.73
2023-03-22T11:03:57.253Z,57.20
2023-03-22T11:06:39.395Z,56.92
2023-03-22T11:09:23.549Z,55.95
2023-03-22T11:12:02.404Z,55.44
2023-03-22T11:14:45.482Z,55.13
2023-03-22T11:17:27.135Z,55.49
2023-03-22T11:20:07.850Z,55.17
2023-03-22T11:22:48.175Z,56.09
2023-03-22T11:25:32.510Z,54.40
2023-03-22T11:28:23.392Z,54.59
2023-03-22T11:31:11.668Z,53.94
2023-03-22T11:34:02.414Z,53.60
2023-03-22T11:36:54.753Z,53.77
2023-03-22T11:39:37.130Z,53.71
2023-03-22T11:42:23.642Z,52.60
2023-03-22T11:45:00.709Z,53.33
2023-03-22T11:47:41.622Z,53.89
2023-03-22T11:50:33.433Z,53.79
2023-03-22T11:53:17.882Z,53.65
2023-03-22T11:55:58.416Z,53.80
2023-03-22T11:58:55.788Z,54.12
2023-03-22T12:01:45.855Z,53.81
2023-03-22T12:04:30.832Z,54.30
2023-03-22T12:07:15.828Z,54.58
2023-03-22T12:10:01.456Z,54.59
2023-03-22T12:12:45.757Z,54.27
2023-03-22T12:15:28.944Z,54.42
2023-03-22T12:18:13.961Z,54.23
2023-03-22T12:20:57.239Z,54.26
2023-03-22T12:23:36.570Z,53.99
2023-03-22T12:26:21.580Z,53.76
2023-03-22T12:29:03.671Z,52.97
2023-03-22T12:31:52.551Z,53.34
2023-03-22T12:34:41.201Z,52.79
2023-03-22T12:37:28.019Z,53.45
2023-03-22T12:40:19.535Z,53.69
2023-03-22T12:43:11.808Z,53.49
2023-03-22T12:45:54.632Z,53.48
2023-03-22T12:48:40.873Z,52.84
2023-03-22T12:51:18.839Z,52.62
2023-03-22T12:53:59.979Z,52.82
2023-03-22T12:56:44.744Z,52.50
2023-03-22T12:59:28.219Z,52.03
2023-03-22T13:02:18.507Z,52.06
2023-03-22T13:05:01.069Z,52.27
2023-03-22T13:07:58.995Z,52.10
2023-03-22T13:11:05.313Z,51.77
2023-03-22T13:13:50.003Z,51.69
2023-03-22T13:17:00.800Z,52.01
2023-03-22T13:19:52.539Z,52.05
2023-03-22T13:23:11.206Z,51.50
2023-03-22T13:26:06.781Z,51.99
2023-03-22T13:28:44.010Z,51.64
2023-03-22T13:31:45.207Z,51.56
2023-03-22T13:34:33.970Z,51.82
2023-03-22T13:37:31.721Z,51.45
2023-03-22T13:40:25.100Z,52.24
2023-03-22T13:43:24.499Z,51.92
2023-03-22T13:46:50.789Z,51.80
2023-03-22T13:49:59.748Z,52.29
2023-03-22T13:52:45.854Z,52.06
2023-03-22T13:55:58.357Z,52.28
2023-03-22T13:58:56.206Z,52.46
2023-03-22T14:01:39.032Z,51.90
2023-03-22T14:04:22.978Z,51.65
2023-03-22T14:07:19.683Z,51.83
2023-03-22T14:10:01.533Z,52.24
2023-03-22T14:12:55.318Z,51.57
2023-03-22T14:15:37.363Z,51.69
2023-03-22T14:18:25.958Z,52.08
2023-03-22T14:21:09.469Z,51.75
